Crystal Symphony — C6MY5 — position and weather

sailwx.info

Track history (hours):
 
Tides and Currents Weather Stations Pressure Air Temp Water Temp Dewpoint Dewpoint Depression Visibility Wind Speed Wind Dir Waves Ship Positions

Crystal Symphony

Operator: Crystal Cruises

Last reported at 2014-Nov-26 18:27 UTC. Time now 2014-Nov-29 05:11 UTC.
Position S 26°28' E 153°20'.

Length 238 m; draft 8 m.

Type: Ship. MMSI: 309168000.

Date/timePositionNaut miles runAvg speedWind from/ knotsBaromVisibWave heightAir tempDewpointWater temp
2014-Nov-26 18:27S 26°28' E 153°20'1617.7
2014-Nov-26 17:33S 26°42' E 153°12'1110.9
2014-Nov-26 16:33S 26°53' E 153°10'1817.7
2014-Nov-26 15:33S 27°08' E 153°21'1615.6
2014-Nov-26 14:33S 27°21' E 153°11'8 8.1
2014-Nov-26 13:33S 27°27' E 153°05'1 1.1
2014-Nov-26 12:32S 27°26' E 153°04'0 0.0
2014-Nov-26 11:11S 27°26' E 153°04'0 0.0
2014-Nov-26 10:28S 27°26' E 153°04'0 0.0
2014-Nov-26 07:33S 27°26' E 153°04'0 0.0
2014-Nov-26 06:29S 27°26' E 153°04'0 0.0
2014-Nov-26 02:25S 27°26' E 153°04'3 3.6
2014-Nov-26 01:33S 27°26' E 153°07'10 9.6
2014-Nov-26 00:33S 27°18' E 153°13'9 8.7
2014-Nov-25 23:33S 27°12' E 153°21'1110.6
2014-Nov-25 22:33S 27°02' E 153°15'1414.1
2014-Nov-25 21:33S 26°49' E 153°09'7 7.4
2014-Nov-25 20:33S 26°43' E 153°14'1111.0
2014-Nov-25 19:33S 26°49' E 153°24'1313.1
2014-Nov-25 18:33S 26°57' E 153°36'1515.6
2014-Nov-25 17:33S 27°12' E 153°40'1614.9
2014-Nov-25 16:31S 27°28' E 153°43'1414.8
2014-Nov-25 15:33S 27°42' E 153°45'26316.1
2014-Nov-24 23:12S 32°01' E 152°52'1116.8
2014-Nov-24 22:33S 32°11' E 152°48'1716.9
2014-Nov-24 21:33S 32°27' E 152°41'1716.9
2014-Nov-24 20:33S 32°41' E 152°29'1716.7
2014-Nov-24 19:33S 32°54' E 152°17'1717.1
2014-Nov-24 18:34S 33°07' E 152°04'1918.9
2014-Nov-24 17:33S 33°22' E 151°50'44 1.7
2014-Nov-23 15:20S 34°05' E 151°43'1513.9
2014-Nov-23 14:16S 34°15' E 151°57'  
Track history (hours):
 
Tides and Currents Weather Stations Pressure Air Temp Water Temp Dewpoint Dewpoint Depression Visibility Wind Speed Wind Dir Waves Ship Positions

Crystal Symphony

Operator: Crystal Cruises

Last reported at 2014-Nov-26 18:27 UTC. Time now 2014-Nov-29 05:11 UTC.
Position S 26°28' E 153°20'.

Length 238 m; draft 8 m.

Type: Ship. MMSI: 309168000.

Date/timePositionNaut miles runAvg speedWind from/ knotsBaromVisibWave heightAir tempDewpointWater temp
2014-Nov-26 18:27S 26°28' E 153°20'1617.7
2014-Nov-26 17:33S 26°42' E 153°12'1110.9
2014-Nov-26 16:33S 26°53' E 153°10'1817.7
2014-Nov-26 15:33S 27°08' E 153°21'1615.6
2014-Nov-26 14:33S 27°21' E 153°11'8 8.1
2014-Nov-26 13:33S 27°27' E 153°05'1 1.1
2014-Nov-26 12:32S 27°26' E 153°04'0 0.0
2014-Nov-26 11:11S 27°26' E 153°04'0 0.0
2014-Nov-26 10:28S 27°26' E 153°04'0 0.0
2014-Nov-26 07:33S 27°26' E 153°04'0 0.0
2014-Nov-26 06:29S 27°26' E 153°04'0 0.0
2014-Nov-26 02:25S 27°26' E 153°04'3 3.6
2014-Nov-26 01:33S 27°26' E 153°07'10 9.6
2014-Nov-26 00:33S 27°18' E 153°13'9 8.7
2014-Nov-25 23:33S 27°12' E 153°21'1110.6
2014-Nov-25 22:33S 27°02' E 153°15'1414.1
2014-Nov-25 21:33S 26°49' E 153°09'7 7.4
2014-Nov-25 20:33S 26°43' E 153°14'1111.0
2014-Nov-25 19:33S 26°49' E 153°24'1313.1
2014-Nov-25 18:33S 26°57' E 153°36'1515.6
2014-Nov-25 17:33S 27°12' E 153°40'1614.9
2014-Nov-25 16:31S 27°28' E 153°43'1414.8
2014-Nov-25 15:33S 27°42' E 153°45'26316.1
2014-Nov-24 23:12S 32°01' E 152°52'1116.8
2014-Nov-24 22:33S 32°11' E 152°48'1716.9
2014-Nov-24 21:33S 32°27' E 152°41'1716.9
2014-Nov-24 20:33S 32°41' E 152°29'1716.7
2014-Nov-24 19:33S 32°54' E 152°17'1717.1
2014-Nov-24 18:34S 33°07' E 152°04'1918.9
2014-Nov-24 17:33S 33°22' E 151°50'44 1.7
2014-Nov-23 15:20S 34°05' E 151°43'1513.9
2014-Nov-23 14:16S 34°15' E 151°57'  

Dump ship's entire track history